sensor_id;sensor_type;location;lat;lon;timestamp;P1;durP1;ratioP1;P2;durP2;ratioP2
21438;SDS011;10880;50.302;18.736;2022-08-01T00:00:46;1.30;;;1.30;;
21438;SDS011;10880;50.302;18.736;2022-08-01T00:03:13;1.50;;;1.40;;
21438;SDS011;10880;50.302;18.736;2022-08-01T00:05:39;1.60;;;1.50;;
21438;SDS011;10880;50.302;18.736;2022-08-01T00:08:09;1.50;;;1.40;;
21438;SDS011;10880;50.302;18.736;2022-08-01T00:10:36;1.63;;;1.53;;
21438;SDS011;10880;50.302;18.736;2022-08-01T00:13:02;1.63;;;1.53;;
21438;SDS011;10880;50.302;18.736;2022-08-01T00:15:29;1.60;;;1.50;;
21438;SDS011;10880;50.302;18.736;2022-08-01T00:17:56;1.60;;;1.50;;
21438;SDS011;10880;50.302;18.736;2022-08-01T00:20:23;1.70;;;1.60;;
21438;SDS011;10880;50.302;18.736;2022-08-01T00:22:50;3.30;;;1.83;;
21438;SDS011;10880;50.302;18.736;2022-08-01T00:25:17;1.60;;;1.50;;
21438;SDS011;10880;50.302;18.736;2022-08-01T00:27:47;2.67;;;1.60;;
21438;SDS011;10880;50.302;18.736;2022-08-01T00:30:13;1.80;;;1.67;;
21438;SDS011;10880;50.302;18.736;2022-08-01T00:32:41;1.67;;;1.57;;
21438;SDS011;10880;50.302;18.736;2022-08-01T00:35:10;1.70;;;1.57;;
21438;SDS011;10880;50.302;18.736;2022-08-01T00:37:37;1.63;;;1.53;;
21438;SDS011;10880;50.302;18.736;2022-08-01T00:40:04;1.50;;;1.40;;
21438;SDS011;10880;50.302;18.736;2022-08-01T00:42:33;1.60;;;1.50;;
21438;SDS011;10880;50.302;18.736;2022-08-01T00:45:00;1.70;;;1.60;;
21438;SDS011;10880;50.302;18.736;2022-08-01T00:47:27;1.57;;;1.47;;
21438;SDS011;10880;50.302;18.736;2022-08-01T00:49:54;1.50;;;1.40;;
21438;SDS011;10880;50.302;18.736;2022-08-01T00:52:20;1.70;;;1.60;;
21438;SDS011;10880;50.302;18.736;2022-08-01T00:54:47;1.60;;;1.43;;
21438;SDS011;10880;50.302;18.736;2022-08-01T00:57:18;1.60;;;1.50;;
21438;SDS011;10880;50.302;18.736;2022-08-01T00:59:44;1.50;;;1.40;;
21438;SDS011;10880;50.302;18.736;2022-08-01T01:02:11;1.60;;;1.50;;
21438;SDS011;10880;50.302;18.736;2022-08-01T01:04:37;1.70;;;1.60;;
21438;SDS011;10880;50.302;18.736;2022-08-01T01:07:19;1.60;;;1.50;;
21438;SDS011;10880;50.302;18.736;2022-08-01T01:13:02;1.63;;;1.50;;
21438;SDS011;10880;50.302;18.736;2022-08-01T01:15:40;2.60;;;1.60;;
21438;SDS011;10880;50.302;18.736;2022-08-01T01:18:45;1.73;;;1.60;;
21438;SDS011;10880;50.302;18.736;2022-08-01T01:27:11;1.60;;;1.50;;
21438;SDS011;10880;50.302;18.736;2022-08-01T01:29:52;1.70;;;1.60;;
21438;SDS011;10880;50.302;18.736;2022-08-01T01:32:23;1.57;;;1.47;;
21438;SDS011;10880;50.302;18.736;2022-08-01T01:34:55;1.60;;;1.50;;
21438;SDS011;10880;50.302;18.736;2022-08-01T01:37:25;1.70;;;1.60;;
21438;SDS011;10880;50.302;18.736;2022-08-01T01:39:52;1.60;;;1.50;;
21438;SDS011;10880;50.302;18.736;2022-08-01T01:42:20;2.17;;;1.53;;
21438;SDS011;10880;50.302;18.736;2022-08-01T01:44:47;1.73;;;1.63;;
21438;SDS011;10880;50.302;18.736;2022-08-01T01:47:16;1.77;;;1.67;;
21438;SDS011;10880;50.302;18.736;2022-08-01T01:49:46;1.70;;;1.60;;
21438;SDS011;10880;50.302;18.736;2022-08-01T01:52:16;1.53;;;1.43;;
21438;SDS011;10880;50.302;18.736;2022-08-01T01:54:48;1.70;;;1.60;;
21438;SDS011;10880;50.302;18.736;2022-08-01T01:57:21;1.73;;;1.50;;
21438;SDS011;10880;50.302;18.736;2022-08-01T01:59:49;2.30;;;1.57;;
21438;SDS011;10880;50.302;18.736;2022-08-01T02:02:20;1.60;;;1.50;;
21438;SDS011;10880;50.302;18.736;2022-08-01T02:04:49;1.53;;;1.43;;
21438;SDS011;10880;50.302;18.736;2022-08-01T02:07:21;1.70;;;1.60;;
21438;SDS011;10880;50.302;18.736;2022-08-01T02:09:51;1.70;;;1.60;;
21438;SDS011;10880;50.302;18.736;2022-08-01T02:12:20;1.70;;;1.60;;
21438;SDS011;10880;50.302;18.736;2022-08-01T02:14:52;1.63;;;1.53;;
21438;SDS011;10880;50.302;18.736;2022-08-01T02:17:20;1.80;;;1.70;;
21438;SDS011;10880;50.302;18.736;2022-08-01T02:19:50;1.70;;;1.60;;
21438;SDS011;10880;50.302;18.736;2022-08-01T02:22:24;1.70;;;1.60;;
21438;SDS011;10880;50.302;18.736;2022-08-01T02:24:59;1.70;;;1.60;;
21438;SDS011;10880;50.302;18.736;2022-08-01T02:27:43;1.60;;;1.50;;
21438;SDS011;10880;50.302;18.736;2022-08-01T02:30:17;1.60;;;1.50;;
21438;SDS011;10880;50.302;18.736;2022-08-01T02:32:46;1.30;;;1.30;;
21438;SDS011;10880;50.302;18.736;2022-08-01T02:35:29;1.60;;;1.50;;
21438;SDS011;10880;50.302;18.736;2022-08-01T02:37:58;1.70;;;1.60;;
21438;SDS011;10880;50.302;18.736;2022-08-01T02:40:33;1.60;;;1.50;;
21438;SDS011;10880;50.302;18.736;2022-08-01T02:43:07;1.57;;;1.47;;
21438;SDS011;10880;50.302;18.736;2022-08-01T02:45:42;1.70;;;1.60;;
21438;SDS011;10880;50.302;18.736;2022-08-01T02:48:12;1.87;;;1.77;;
21438;SDS011;10880;50.302;18.736;2022-08-01T02:50:42;1.70;;;1.60;;
21438;SDS011;10880;50.302;18.736;2022-08-01T02:53:11;1.50;;;1.40;;
21438;SDS011;10880;50.302;18.736;2022-08-01T02:55:40;1.50;;;1.40;;
21438;SDS011;10880;50.302;18.736;2022-08-01T02:58:10;1.60;;;1.50;;
21438;SDS011;10880;50.302;18.736;2022-08-01T03:00:39;1.70;;;1.60;;
21438;SDS011;10880;50.302;18.736;2022-08-01T03:03:13;1.50;;;1.40;;
21438;SDS011;10880;50.302;18.736;2022-08-01T03:05:43;1.80;;;1.70;;
21438;SDS011;10880;50.302;18.736;2022-08-01T03:08:10;1.60;;;1.50;;
21438;SDS011;10880;50.302;18.736;2022-08-01T03:10:40;1.60;;;1.50;;
21438;SDS011;10880;50.302;18.736;2022-08-01T03:13:09;1.93;;;1.80;;
21438;SDS011;10880;50.302;18.736;2022-08-01T03:15:38;1.77;;;1.67;;
21438;SDS011;10880;50.302;18.736;2022-08-01T03:18:09;1.50;;;1.40;;
21438;SDS011;10880;50.302;18.736;2022-08-01T03:20:37;1.57;;;1.47;;
21438;SDS011;10880;50.302;18.736;2022-08-01T03:23:07;1.73;;;1.63;;
21438;SDS011;10880;50.302;18.736;2022-08-01T03:25:40;1.60;;;1.50;;
21438;SDS011;10880;50.302;18.736;2022-08-01T03:28:12;1.57;;;1.47;;
21438;SDS011;10880;50.302;18.736;2022-08-01T03:30:39;1.60;;;1.50;;
21438;SDS011;10880;50.302;18.736;2022-08-01T03:33:10;1.70;;;1.60;;
21438;SDS011;10880;50.302;18.736;2022-08-01T03:35:39;1.70;;;1.60;;
21438;SDS011;10880;50.302;18.736;2022-08-01T03:38:11;1.50;;;1.40;;
21438;SDS011;10880;50.302;18.736;2022-08-01T03:41:02;1.63;;;1.53;;
21438;SDS011;10880;50.302;18.736;2022-08-01T03:43:41;1.80;;;1.70;;
21438;SDS011;10880;50.302;18.736;2022-08-01T03:46:19;1.60;;;1.50;;
21438;SDS011;10880;50.302;18.736;2022-08-01T03:48:51;2.87;;;1.53;;
21438;SDS011;10880;50.302;18.736;2022-08-01T03:51:21;1.80;;;1.70;;
21438;SDS011;10880;50.302;18.736;2022-08-01T03:53:49;1.80;;;1.70;;
21438;SDS011;10880;50.302;18.736;2022-08-01T03:56:18;1.63;;;1.53;;
21438;SDS011;10880;50.302;18.736;2022-08-01T03:58:47;1.70;;;1.60;;
21438;SDS011;10880;50.302;18.736;2022-08-01T04:01:16;1.60;;;1.50;;
21438;SDS011;10880;50.302;18.736;2022-08-01T04:03:45;1.60;;;1.50;;
21438;SDS011;10880;50.302;18.736;2022-08-01T04:06:13;1.63;;;1.53;;
21438;SDS011;10880;50.302;18.736;2022-08-01T04:08:41;1.60;;;1.50;;
21438;SDS011;10880;50.302;18.736;2022-08-01T04:11:07;2.67;;;1.50;;
21438;SDS011;10880;50.302;18.736;2022-08-01T04:13:37;1.50;;;1.43;;
21438;SDS011;10880;50.302;18.736;2022-08-01T04:16:03;1.73;;;1.63;;
21438;SDS011;10880;50.302;18.736;2022-08-01T04:18:30;1.60;;;1.50;;
21438;SDS011;10880;50.302;18.736;2022-08-01T04:20:56;1.67;;;1.43;;
21438;SDS011;10880;50.302;18.736;2022-08-01T04:23:23;1.70;;;1.60;;
21438;SDS011;10880;50.302;18.736;2022-08-01T04:25:53;1.60;;;1.50;;
21438;SDS011;10880;50.302;18.736;2022-08-01T04:28:21;1.60;;;1.50;;
21438;SDS011;10880;50.302;18.736;2022-08-01T04:30:51;2.10;;;1.60;;
21438;SDS011;10880;50.302;18.736;2022-08-01T04:33:22;1.93;;;1.83;;
21438;SDS011;10880;50.302;18.736;2022-08-01T04:35:52;1.77;;;1.67;;
21438;SDS011;10880;50.302;18.736;2022-08-01T04:38:19;2.00;;;1.80;;
21438;SDS011;10880;50.302;18.736;2022-08-01T04:40:49;1.90;;;1.80;;
21438;SDS011;10880;50.302;18.736;2022-08-01T04:43:19;1.70;;;1.60;;
21438;SDS011;10880;50.302;18.736;2022-08-01T04:45:47;2.20;;;2.00;;
21438;SDS011;10880;50.302;18.736;2022-08-01T04:48:16;2.00;;;1.90;;
21438;SDS011;10880;50.302;18.736;2022-08-01T04:50:45;1.87;;;1.77;;
21438;SDS011;10880;50.302;18.736;2022-08-01T04:53:15;1.90;;;1.80;;
21438;SDS011;10880;50.302;18.736;2022-08-01T04:55:45;1.70;;;1.60;;
21438;SDS011;10880;50.302;18.736;2022-08-01T04:58:12;1.77;;;1.67;;
21438;SDS011;10880;50.302;18.736;2022-08-01T05:00:40;1.77;;;1.67;;
21438;SDS011;10880;50.302;18.736;2022-08-01T05:03:07;1.80;;;1.70;;
21438;SDS011;10880;50.302;18.736;2022-08-01T05:05:33;2.10;;;1.90;;
21438;SDS011;10880;50.302;18.736;2022-08-01T05:08:00;1.90;;;1.80;;
21438;SDS011;10880;50.302;18.736;2022-08-01T05:10:26;2.03;;;1.70;;
21438;SDS011;10880;50.302;18.736;2022-08-01T05:12:53;1.80;;;1.70;;
21438;SDS011;10880;50.302;18.736;2022-08-01T05:15:20;2.37;;;1.90;;
21438;SDS011;10880;50.302;18.736;2022-08-01T05:17:46;1.73;;;1.63;;
21438;SDS011;10880;50.302;18.736;2022-08-01T05:20:13;1.90;;;1.80;;
21438;SDS011;10880;50.302;18.736;2022-08-01T05:22:39;2.00;;;1.90;;
21438;SDS011;10880;50.302;18.736;2022-08-01T05:25:06;1.80;;;1.70;;
21438;SDS011;10880;50.302;18.736;2022-08-01T05:27:32;2.00;;;1.80;;
21438;SDS011;10880;50.302;18.736;2022-08-01T05:30:04;1.90;;;1.80;;
21438;SDS011;10880;50.302;18.736;2022-08-01T05:32:38;1.90;;;1.80;;
21438;SDS011;10880;50.302;18.736;2022-08-01T05:35:05;2.00;;;1.90;;
21438;SDS011;10880;50.302;18.736;2022-08-01T05:37:33;2.33;;;2.13;;
21438;SDS011;10880;50.302;18.736;2022-08-01T05:40:00;1.90;;;1.80;;
21438;SDS011;10880;50.302;18.736;2022-08-01T05:42:27;2.20;;;2.00;;
21438;SDS011;10880;50.302;18.736;2022-08-01T05:44:53;2.43;;;2.00;;
21438;SDS011;10880;50.302;18.736;2022-08-01T05:47:19;3.10;;;1.90;;
21438;SDS011;10880;50.302;18.736;2022-08-01T05:49:46;2.33;;;2.07;;
21438;SDS011;10880;50.302;18.736;2022-08-01T05:52:14;2.33;;;2.13;;
21438;SDS011;10880;50.302;18.736;2022-08-01T05:54:41;2.23;;;2.03;;
21438;SDS011;10880;50.302;18.736;2022-08-01T05:57:07;2.40;;;2.20;;
21438;SDS011;10880;50.302;18.736;2022-08-01T05:59:33;2.23;;;2.03;;
21438;SDS011;10880;50.302;18.736;2022-08-01T06:02:00;2.30;;;2.10;;
21438;SDS011;10880;50.302;18.736;2022-08-01T06:04:26;2.77;;;2.13;;
21438;SDS011;10880;50.302;18.736;2022-08-01T06:06:53;2.43;;;2.07;;
21438;SDS011;10880;50.302;18.736;2022-08-01T06:09:19;5.77;;;2.23;;
21438;SDS011;10880;50.302;18.736;2022-08-01T06:11:47;2.17;;;2.03;;
21438;SDS011;10880;50.302;18.736;2022-08-01T06:14:16;3.73;;;2.17;;
21438;SDS011;10880;50.302;18.736;2022-08-01T06:16:43;2.10;;;1.90;;
21438;SDS011;10880;50.302;18.736;2022-08-01T06:19:09;2.90;;;2.30;;
21438;SDS011;10880;50.302;18.736;2022-08-01T06:21:36;2.90;;;2.40;;
21438;SDS011;10880;50.302;18.736;2022-08-01T06:24:02;2.63;;;2.37;;
21438;SDS011;10880;50.302;18.736;2022-08-01T06:26:29;2.93;;;2.30;;
21438;SDS011;10880;50.302;18.736;2022-08-01T06:28:55;2.30;;;2.10;;
21438;SDS011;10880;50.302;18.736;2022-08-01T06:31:21;2.57;;;2.17;;
21438;SDS011;10880;50.302;18.736;2022-08-01T06:33:48;3.47;;;2.10;;
21438;SDS011;10880;50.302;18.736;2022-08-01T06:36:15;2.30;;;2.10;;
21438;SDS011;10880;50.302;18.736;2022-08-01T06:38:41;3.10;;;2.30;;
21438;SDS011;10880;50.302;18.736;2022-08-01T06:41:07;2.73;;;2.43;;
21438;SDS011;10880;50.302;18.736;2022-08-01T06:43:34;2.40;;;2.20;;
21438;SDS011;10880;50.302;18.736;2022-08-01T06:46:00;1.83;;;1.67;;
21438;SDS011;10880;50.302;18.736;2022-08-01T06:48:27;1.77;;;1.67;;
21438;SDS011;10880;50.302;18.736;2022-08-01T06:50:56;2.33;;;1.70;;
21438;SDS011;10880;50.302;18.736;2022-08-01T06:53:35;4.10;;;2.30;;
21438;SDS011;10880;50.302;18.736;2022-08-01T06:56:03;1.80;;;1.60;;
21438;SDS011;10880;50.302;18.736;2022-08-01T06:58:31;1.90;;;1.80;;
21438;SDS011;10880;50.302;18.736;2022-08-01T07:00:57;1.60;;;1.50;;
21438;SDS011;10880;50.302;18.736;2022-08-01T07:03:24;1.80;;;1.70;;
21438;SDS011;10880;50.302;18.736;2022-08-01T07:05:50;1.70;;;1.60;;
21438;SDS011;10880;50.302;18.736;2022-08-01T07:08:16;1.70;;;1.60;;
21438;SDS011;10880;50.302;18.736;2022-08-01T07:10:43;1.67;;;1.57;;
21438;SDS011;10880;50.302;18.736;2022-08-01T07:13:09;1.67;;;1.57;;
21438;SDS011;10880;50.302;18.736;2022-08-01T07:15:37;1.63;;;1.53;;
21438;SDS011;10880;50.302;18.736;2022-08-01T07:18:04;1.57;;;1.47;;
21438;SDS011;10880;50.302;18.736;2022-08-01T07:20:32;1.50;;;1.40;;
21438;SDS011;10880;50.302;18.736;2022-08-01T07:22:58;1.70;;;1.60;;
21438;SDS011;10880;50.302;18.736;2022-08-01T07:25:25;2.00;;;1.67;;
21438;SDS011;10880;50.302;18.736;2022-08-01T07:27:51;1.60;;;1.50;;
21438;SDS011;10880;50.302;18.736;2022-08-01T07:30:20;2.03;;;1.80;;
21438;SDS011;10880;50.302;18.736;2022-08-01T07:32:46;1.67;;;1.57;;
21438;SDS011;10880;50.302;18.736;2022-08-01T07:35:13;2.03;;;1.80;;
21438;SDS011;10880;50.302;18.736;2022-08-01T07:37:39;1.80;;;1.63;;
21438;SDS011;10880;50.302;18.736;2022-08-01T07:40:06;2.10;;;1.50;;
21438;SDS011;10880;50.302;18.736;2022-08-01T07:42:33;1.73;;;1.60;;
21438;SDS011;10880;50.302;18.736;2022-08-01T07:44:59;1.80;;;1.70;;
21438;SDS011;10880;50.302;18.736;2022-08-01T07:47:26;1.50;;;1.40;;
21438;SDS011;10880;50.302;18.736;2022-08-01T07:49:58;2.70;;;1.73;;
21438;SDS011;10880;50.302;18.736;2022-08-01T07:52:25;1.20;;;1.20;;
21438;SDS011;10880;50.302;18.736;2022-08-01T07:54:52;1.60;;;1.50;;
21438;SDS011;10880;50.302;18.736;2022-08-01T07:57:19;1.80;;;1.60;;
21438;SDS011;10880;50.302;18.736;2022-08-01T07:59:46;1.83;;;1.60;;
21438;SDS011;10880;50.302;18.736;2022-08-01T08:02:13;1.67;;;1.57;;
21438;SDS011;10880;50.302;18.736;2022-08-01T08:04:39;1.80;;;1.60;;
21438;SDS011;10880;50.302;18.736;2022-08-01T08:07:06;1.50;;;1.40;;
21438;SDS011;10880;50.302;18.736;2022-08-01T08:09:33;1.50;;;1.40;;
21438;SDS011;10880;50.302;18.736;2022-08-01T08:12:00;1.70;;;1.60;;
21438;SDS011;10880;50.302;18.736;2022-08-01T08:14:27;1.83;;;1.73;;
21438;SDS011;10880;50.302;18.736;2022-08-01T08:16:54;1.80;;;1.70;;
21438;SDS011;10880;50.302;18.736;2022-08-01T08:19:21;1.50;;;1.40;;
21438;SDS011;10880;50.302;18.736;2022-08-01T08:21:47;1.50;;;1.40;;
21438;SDS011;10880;50.302;18.736;2022-08-01T08:24:13;1.70;;;1.50;;
21438;SDS011;10880;50.302;18.736;2022-08-01T08:26:47;1.60;;;1.50;;
21438;SDS011;10880;50.302;18.736;2022-08-01T08:29:14;2.00;;;1.80;;
21438;SDS011;10880;50.302;18.736;2022-08-01T08:31:41;1.90;;;1.80;;
21438;SDS011;10880;50.302;18.736;2022-08-01T08:34:08;1.73;;;1.63;;
21438;SDS011;10880;50.302;18.736;2022-08-01T08:36:35;2.13;;;1.90;;
21438;SDS011;10880;50.302;18.736;2022-08-01T08:39:01;1.60;;;1.50;;
21438;SDS011;10880;50.302;18.736;2022-08-01T08:41:30;1.50;;;1.40;;
21438;SDS011;10880;50.302;18.736;2022-08-01T08:44:01;1.40;;;1.30;;
21438;SDS011;10880;50.302;18.736;2022-08-01T08:46:29;1.50;;;1.40;;
21438;SDS011;10880;50.302;18.736;2022-08-01T08:48:58;1.30;;;1.20;;
21438;SDS011;10880;50.302;18.736;2022-08-01T08:51:30;1.40;;;1.30;;
21438;SDS011;10880;50.302;18.736;2022-08-01T08:54:00;1.10;;;1.10;;
21438;SDS011;10880;50.302;18.736;2022-08-01T08:56:28;1.40;;;1.30;;
21438;SDS011;10880;50.302;18.736;2022-08-01T08:59:00;1.63;;;1.20;;
21438;SDS011;10880;50.302;18.736;2022-08-01T09:01:28;1.30;;;1.20;;
21438;SDS011;10880;50.302;18.736;2022-08-01T09:03:54;1.10;;;1.10;;
21438;SDS011;10880;50.302;18.736;2022-08-01T09:06:21;1.20;;;1.20;;
21438;SDS011;10880;50.302;18.736;2022-08-01T09:08:47;1.10;;;1.10;;
21438;SDS011;10880;50.302;18.736;2022-08-01T09:11:14;1.47;;;1.37;;
21438;SDS011;10880;50.302;18.736;2022-08-01T09:13:41;1.37;;;1.27;;
21438;SDS011;10880;50.302;18.736;2022-08-01T09:16:07;1.50;;;1.40;;
21438;SDS011;10880;50.302;18.736;2022-08-01T09:18:35;1.60;;;1.30;;
21438;SDS011;10880;50.302;18.736;2022-08-01T09:21:17;1.40;;;1.30;;
21438;SDS011;10880;50.302;18.736;2022-08-01T09:23:49;1.60;;;1.37;;
21438;SDS011;10880;50.302;18.736;2022-08-01T09:26:18;1.40;;;1.30;;
21438;SDS011;10880;50.302;18.736;2022-08-01T09:28:47;1.53;;;1.40;;
21438;SDS011;10880;50.302;18.736;2022-08-01T09:31:16;1.60;;;1.50;;
21438;SDS011;10880;50.302;18.736;2022-08-01T09:36:18;1.50;;;1.40;;
21438;SDS011;10880;50.302;18.736;2022-08-01T09:38:47;1.50;;;1.40;;
21438;SDS011;10880;50.302;18.736;2022-08-01T09:41:15;1.60;;;1.50;;
21438;SDS011;10880;50.302;18.736;2022-08-01T09:43:49;1.47;;;1.37;;
21438;SDS011;10880;50.302;18.736;2022-08-01T09:46:16;1.60;;;1.50;;
21438;SDS011;10880;50.302;18.736;2022-08-01T09:48:57;1.63;;;1.53;;
21438;SDS011;10880;50.302;18.736;2022-08-01T09:51:36;1.60;;;1.47;;
21438;SDS011;10880;50.302;18.736;2022-08-01T09:54:07;1.53;;;1.43;;
21438;SDS011;10880;50.302;18.736;2022-08-01T09:56:38;1.30;;;1.30;;
21438;SDS011;10880;50.302;18.736;2022-08-01T09:59:08;1.47;;;1.37;;
21438;SDS011;10880;50.302;18.736;2022-08-01T10:01:42;1.33;;;1.23;;
21438;SDS011;10880;50.302;18.736;2022-08-01T10:04:15;1.47;;;1.37;;
21438;SDS011;10880;50.302;18.736;2022-08-01T10:06:44;1.27;;;1.27;;
21438;SDS011;10880;50.302;18.736;2022-08-01T10:09:15;1.47;;;1.37;;
21438;SDS011;10880;50.302;18.736;2022-08-01T10:11:55;1.50;;;1.40;;
21438;SDS011;10880;50.302;18.736;2022-08-01T10:14:24;1.60;;;1.50;;
21438;SDS011;10880;50.302;18.736;2022-08-01T10:16:52;1.40;;;1.30;;
21438;SDS011;10880;50.302;18.736;2022-08-01T10:19:23;3.47;;;1.20;;
21438;SDS011;10880;50.302;18.736;2022-08-01T10:21:53;1.47;;;1.37;;
21438;SDS011;10880;50.302;18.736;2022-08-01T10:24:25;1.80;;;1.70;;
21438;SDS011;10880;50.302;18.736;2022-08-01T10:26:55;3.23;;;1.70;;
21438;SDS011;10880;50.302;18.736;2022-08-01T10:29:31;1.80;;;1.70;;
21438;SDS011;10880;50.302;18.736;2022-08-01T10:32:05;1.40;;;1.30;;
21438;SDS011;10880;50.302;18.736;2022-08-01T10:34:36;1.60;;;1.50;;
21438;SDS011;10880;50.302;18.736;2022-08-01T10:37:04;2.23;;;1.60;;
21438;SDS011;10880;50.302;18.736;2022-08-01T10:39:34;1.40;;;1.30;;
21438;SDS011;10880;50.302;18.736;2022-08-01T10:42:01;1.40;;;1.30;;
21438;SDS011;10880;50.302;18.736;2022-08-01T10:44:30;1.77;;;1.50;;
21438;SDS011;10880;50.302;18.736;2022-08-01T10:50:07;1.67;;;1.57;;
21438;SDS011;10880;50.302;18.736;2022-08-01T10:52:47;1.50;;;1.40;;
21438;SDS011;10880;50.302;18.736;2022-08-01T10:58:28;1.60;;;1.50;;
21438;SDS011;10880;50.302;18.736;2022-08-01T11:04:03;2.80;;;1.50;;
21438;SDS011;10880;50.302;18.736;2022-08-01T11:09:02;1.40;;;1.30;;
21438;SDS011;10880;50.302;18.736;2022-08-01T11:11:32;1.37;;;1.27;;
21438;SDS011;10880;50.302;18.736;2022-08-01T11:14:27;1.20;;;1.20;;
21438;SDS011;10880;50.302;18.736;2022-08-01T11:16:55;1.40;;;1.30;;
21438;SDS011;10880;50.302;18.736;2022-08-01T11:20:03;1.40;;;1.30;;
21438;SDS011;10880;50.302;18.736;2022-08-01T11:22:30;1.30;;;1.30;;
21438;SDS011;10880;50.302;18.736;2022-08-01T11:24:57;1.30;;;1.30;;
21438;SDS011;10880;50.302;18.736;2022-08-01T11:27:29;1.50;;;1.40;;
21438;SDS011;10880;50.302;18.736;2022-08-01T11:32:45;1.50;;;1.40;;
21438;SDS011;10880;50.302;18.736;2022-08-01T11:35:18;1.60;;;1.50;;
21438;SDS011;10880;50.302;18.736;2022-08-01T11:37:47;1.47;;;1.37;;
21438;SDS011;10880;50.302;18.736;2022-08-01T11:43:37;1.10;;;1.10;;
21438;SDS011;10880;50.302;18.736;2022-08-01T11:45:54;1.50;;;1.40;;
21438;SDS011;10880;50.302;18.736;2022-08-01T11:48:22;1.30;;;1.20;;
21438;SDS011;10880;50.302;18.736;2022-08-01T11:50:53;1.27;;;1.27;;
21438;SDS011;10880;50.302;18.736;2022-08-01T11:53:21;1.40;;;1.30;;
21438;SDS011;10880;50.302;18.736;2022-08-01T11:55:49;1.50;;;1.40;;
21438;SDS011;10880;50.302;18.736;2022-08-01T11:58:25;1.63;;;1.27;;
21438;SDS011;10880;50.302;18.736;2022-08-01T12:00:53;1.50;;;1.40;;
21438;SDS011;10880;50.302;18.736;2022-08-01T12:03:27;1.40;;;1.30;;
21438;SDS011;10880;50.302;18.736;2022-08-01T12:05:58;1.23;;;1.23;;
21438;SDS011;10880;50.302;18.736;2022-08-01T12:08:30;1.10;;;1.10;;
21438;SDS011;10880;50.302;18.736;2022-08-01T12:11:03;1.10;;;1.10;;
21438;SDS011;10880;50.302;18.736;2022-08-01T12:13:41;1.20;;;1.20;;
21438;SDS011;10880;50.302;18.736;2022-08-01T12:16:09;2.80;;;1.40;;
21438;SDS011;10880;50.302;18.736;2022-08-01T12:18:42;1.50;;;1.40;;
21438;SDS011;10880;50.302;18.736;2022-08-01T12:21:11;1.40;;;1.30;;
21438;SDS011;10880;50.302;18.736;2022-08-01T12:23:37;1.30;;;1.20;;
21438;SDS011;10880;50.302;18.736;2022-08-01T12:26:06;1.20;;;1.20;;
21438;SDS011;10880;50.302;18.736;2022-08-01T12:28:38;1.40;;;1.30;;
21438;SDS011;10880;50.302;18.736;2022-08-01T12:31:06;1.10;;;1.10;;
21438;SDS011;10880;50.302;18.736;2022-08-01T12:33:35;1.30;;;1.20;;
21438;SDS011;10880;50.302;18.736;2022-08-01T12:36:08;1.30;;;1.20;;
21438;SDS011;10880;50.302;18.736;2022-08-01T12:38:34;1.43;;;1.20;;
21438;SDS011;10880;50.302;18.736;2022-08-01T12:41:02;1.37;;;1.27;;
21438;SDS011;10880;50.302;18.736;2022-08-01T12:43:32;1.10;;;1.10;;
21438;SDS011;10880;50.302;18.736;2022-08-01T12:46:27;1.17;;;1.10;;
21438;SDS011;10880;50.302;18.736;2022-08-01T12:48:54;1.30;;;1.20;;
21438;SDS011;10880;50.302;18.736;2022-08-01T12:51:21;1.30;;;1.20;;
21438;SDS011;10880;50.302;18.736;2022-08-01T12:53:48;1.10;;;1.10;;
21438;SDS011;10880;50.302;18.736;2022-08-01T12:56:15;1.60;;;1.50;;
21438;SDS011;10880;50.302;18.736;2022-08-01T12:58:57;1.43;;;1.20;;
21438;SDS011;10880;50.302;18.736;2022-08-01T13:01:26;1.40;;;1.30;;
21438;SDS011;10880;50.302;18.736;2022-08-01T13:03:59;1.10;;;1.10;;
21438;SDS011;10880;50.302;18.736;2022-08-01T13:06:28;1.20;;;1.20;;
21438;SDS011;10880;50.302;18.736;2022-08-01T13:09:06;1.30;;;1.20;;
21438;SDS011;10880;50.302;18.736;2022-08-01T13:11:44;1.13;;;1.10;;
21438;SDS011;10880;50.302;18.736;2022-08-01T13:14:47;1.30;;;1.20;;
21438;SDS011;10880;50.302;18.736;2022-08-01T13:18:23;1.30;;;1.20;;
21438;SDS011;10880;50.302;18.736;2022-08-01T13:23:59;1.40;;;1.30;;
21438;SDS011;10880;50.302;18.736;2022-08-01T13:26:44;1.23;;;1.20;;
21438;SDS011;10880;50.302;18.736;2022-08-01T13:29:13;1.40;;;1.30;;
21438;SDS011;10880;50.302;18.736;2022-08-01T13:31:41;1.40;;;1.30;;
21438;SDS011;10880;50.302;18.736;2022-08-01T13:34:11;1.40;;;1.30;;
21438;SDS011;10880;50.302;18.736;2022-08-01T13:36:37;1.40;;;1.30;;
21438;SDS011;10880;50.302;18.736;2022-08-01T13:39:04;1.30;;;1.20;;
21438;SDS011;10880;50.302;18.736;2022-08-01T13:41:51;1.53;;;1.40;;
21438;SDS011;10880;50.302;18.736;2022-08-01T13:44:18;1.47;;;1.37;;
21438;SDS011;10880;50.302;18.736;2022-08-01T13:46:45;1.30;;;1.20;;
21438;SDS011;10880;50.302;18.736;2022-08-01T13:49:15;1.20;;;1.20;;
21438;SDS011;10880;50.302;18.736;2022-08-01T13:51:42;1.40;;;1.30;;
21438;SDS011;10880;50.302;18.736;2022-08-01T13:54:08;1.50;;;1.40;;
21438;SDS011;10880;50.302;18.736;2022-08-01T13:56:34;1.60;;;1.50;;
21438;SDS011;10880;50.302;18.736;2022-08-01T13:59:01;1.93;;;1.50;;
21438;SDS011;10880;50.302;18.736;2022-08-01T14:01:29;1.40;;;1.30;;
21438;SDS011;10880;50.302;18.736;2022-08-01T14:03:55;1.30;;;1.20;;
21438;SDS011;10880;50.302;18.736;2022-08-01T14:06:25;1.30;;;1.20;;
21438;SDS011;10880;50.302;18.736;2022-08-01T14:08:52;1.37;;;1.27;;
21438;SDS011;10880;50.302;18.736;2022-08-01T14:11:19;1.40;;;1.30;;
21438;SDS011;10880;50.302;18.736;2022-08-01T14:13:50;1.30;;;1.20;;
21438;SDS011;10880;50.302;18.736;2022-08-01T14:16:18;1.40;;;1.30;;
21438;SDS011;10880;50.302;18.736;2022-08-01T14:18:46;1.00;;;1.00;;
21438;SDS011;10880;50.302;18.736;2022-08-01T14:21:12;1.40;;;1.30;;
21438;SDS011;10880;50.302;18.736;2022-08-01T14:23:40;1.30;;;1.20;;
21438;SDS011;10880;50.302;18.736;2022-08-01T14:26:09;1.40;;;1.30;;
21438;SDS011;10880;50.302;18.736;2022-08-01T14:28:40;1.10;;;1.00;;
21438;SDS011;10880;50.302;18.736;2022-08-01T14:31:08;1.20;;;1.20;;
21438;SDS011;10880;50.302;18.736;2022-08-01T14:33:39;1.23;;;1.13;;
21438;SDS011;10880;50.302;18.736;2022-08-01T14:36:06;1.10;;;1.10;;
21438;SDS011;10880;50.302;18.736;2022-08-01T14:38:32;1.23;;;1.17;;
21438;SDS011;10880;50.302;18.736;2022-08-01T14:41:00;1.00;;;1.00;;
21438;SDS011;10880;50.302;18.736;2022-08-01T14:43:30;1.30;;;1.20;;
21438;SDS011;10880;50.302;18.736;2022-08-01T14:45:58;1.50;;;1.40;;
21438;SDS011;10880;50.302;18.736;2022-08-01T14:48:28;1.40;;;1.30;;
21438;SDS011;10880;50.302;18.736;2022-08-01T14:50:55;1.40;;;1.30;;
21438;SDS011;10880;50.302;18.736;2022-08-01T14:53:21;1.40;;;1.30;;
21438;SDS011;10880;50.302;18.736;2022-08-01T14:55:49;1.10;;;1.10;;
21438;SDS011;10880;50.302;18.736;2022-08-01T14:58:19;1.33;;;1.10;;
21438;SDS011;10880;50.302;18.736;2022-08-01T15:00:48;1.30;;;1.20;;
21438;SDS011;10880;50.302;18.736;2022-08-01T15:03:21;1.30;;;1.20;;
21438;SDS011;10880;50.302;18.736;2022-08-01T15:05:47;1.30;;;1.20;;
21438;SDS011;10880;50.302;18.736;2022-08-01T15:08:16;1.23;;;1.20;;
21438;SDS011;10880;50.302;18.736;2022-08-01T15:10:43;1.37;;;1.27;;
21438;SDS011;10880;50.302;18.736;2022-08-01T15:13:10;1.45;;;1.35;;
21438;SDS011;10880;50.302;18.736;2022-08-01T15:15:36;1.40;;;1.30;;
21438;SDS011;10880;50.302;18.736;2022-08-01T15:18:03;1.40;;;1.30;;
21438;SDS011;10880;50.302;18.736;2022-08-01T15:20:32;1.20;;;1.20;;